sensor_id;sensor_type;location;lat;lon;timestamp;pressure;altitude;pressure_sealevel;temperature;humidity
59289;BME280;45056;47.602;9.886;2023-04-22T00:00:31;92382.53;;;11.97;60.59
59289;BME280;45056;47.602;9.886;2023-04-22T00:02:59;92374.84;;;11.95;60.55
59289;BME280;45056;47.602;9.886;2023-04-22T00:05:27;92384.22;;;11.94;60.87
59289;BME280;45056;47.602;9.886;2023-04-22T00:07:55;92382.44;;;11.91;60.99
59289;BME280;45056;47.602;9.886;2023-04-22T00:10:25;92375.94;;;11.89;61.11
59289;BME280;45056;47.602;9.886;2023-04-22T00:12:53;92372.47;;;11.88;61.06
59289;BME280;45056;47.602;9.886;2023-04-22T00:15:21;92379.13;;;11.87;60.39
59289;BME280;45056;47.602;9.886;2023-04-22T00:17:50;92383.38;;;11.88;60.11
59289;BME280;45056;47.602;9.886;2023-04-22T00:20:19;92385.81;;;11.86;60.53
59289;BME280;45056;47.602;9.886;2023-04-22T00:22:48;92384.25;;;11.85;60.46
59289;BME280;45056;47.602;9.886;2023-04-22T00:25:16;92380.81;;;11.84;59.52
59289;BME280;45056;47.602;9.886;2023-04-22T00:27:47;92378.53;;;11.83;58.41
59289;BME280;45056;47.602;9.886;2023-04-22T00:30:15;92385.47;;;11.84;57.61
59289;BME280;45056;47.602;9.886;2023-04-22T00:32:43;92378.53;;;11.83;57.32
59289;BME280;45056;47.602;9.886;2023-04-22T00:35:11;92374.59;;;11.84;56.83
59289;BME280;45056;47.602;9.886;2023-04-22T00:37:39;92380.03;;;11.84;56.78
59289;BME280;45056;47.602;9.886;2023-04-22T00:40:08;92377.78;;;11.82;56.54
59289;BME280;45056;47.602;9.886;2023-04-22T00:42:38;92375.06;;;11.82;56.46
59289;BME280;45056;47.602;9.886;2023-04-22T00:45:10;92367.63;;;11.83;56.35
59289;BME280;45056;47.602;9.886;2023-04-22T00:47:43;92376.56;;;11.83;56.35
59289;BME280;45056;47.602;9.886;2023-04-22T00:50:12;92381.53;;;11.85;56.33
59289;BME280;45056;47.602;9.886;2023-04-22T00:52:40;92383.06;;;11.86;56.31
59289;BME280;45056;47.602;9.886;2023-04-22T00:55:09;92375.63;;;11.87;56.38
59289;BME280;45056;47.602;9.886;2023-04-22T00:57:38;92381.09;;;11.87;56.16
59289;BME280;45056;47.602;9.886;2023-04-22T01:00:09;92379.59;;;11.86;56.13
59289;BME280;45056;47.602;9.886;2023-04-22T01:02:38;92370.63;;;11.85;56.18
59289;BME280;45056;47.602;9.886;2023-04-22T01:05:07;92373.69;;;11.87;56.42
59289;BME280;45056;47.602;9.886;2023-04-22T01:07:36;92368.69;;;11.86;56.35
59289;BME280;45056;47.602;9.886;2023-04-22T01:10:05;92367.91;;;11.85;56.39
59289;BME280;45056;47.602;9.886;2023-04-22T01:12:34;92367.47;;;11.87;56.42
59289;BME280;45056;47.602;9.886;2023-04-22T01:15:02;92359.00;;;11.84;56.50
59289;BME280;45056;47.602;9.886;2023-04-22T01:17:32;92371.84;;;11.84;56.54
59289;BME280;45056;47.602;9.886;2023-04-22T01:20:01;92371.28;;;11.80;56.67
59289;BME280;45056;47.602;9.886;2023-04-22T01:22:35;92366.47;;;11.75;57.24
59289;BME280;45056;47.602;9.886;2023-04-22T01:25:09;92367.56;;;11.68;57.28
59289;BME280;45056;47.602;9.886;2023-04-22T01:27:38;92367.44;;;11.62;57.63
59289;BME280;45056;47.602;9.886;2023-04-22T01:30:08;92375.03;;;11.58;57.84
59289;BME280;45056;47.602;9.886;2023-04-22T01:32:38;92372.47;;;11.54;57.93
59289;BME280;45056;47.602;9.886;2023-04-22T01:35:07;92372.94;;;11.53;57.99
59289;BME280;45056;47.602;9.886;2023-04-22T01:37:36;92374.91;;;11.52;58.18
59289;BME280;45056;47.602;9.886;2023-04-22T01:40:05;92367.94;;;11.51;58.33
59289;BME280;45056;47.602;9.886;2023-04-22T01:42:38;92371.13;;;11.50;58.25
59289;BME280;45056;47.602;9.886;2023-04-22T01:45:07;92370.38;;;11.49;58.29
59289;BME280;45056;47.602;9.886;2023-04-22T01:47:36;92379.78;;;11.48;58.20
59289;BME280;45056;47.602;9.886;2023-04-22T01:50:05;92374.03;;;11.46;58.36
59289;BME280;45056;47.602;9.886;2023-04-22T01:52:34;92378.13;;;11.42;58.12
59289;BME280;45056;47.602;9.886;2023-04-22T01:55:02;92371.81;;;11.35;58.32
59289;BME280;45056;47.602;9.886;2023-04-22T01:57:32;92373.19;;;11.31;58.46
59289;BME280;45056;47.602;9.886;2023-04-22T02:00:00;92374.88;;;11.28;58.52
59289;BME280;45056;47.602;9.886;2023-04-22T02:02:30;92373.34;;;11.27;58.55
59289;BME280;45056;47.602;9.886;2023-04-22T02:04:58;92365.63;;;11.25;58.67
59289;BME280;45056;47.602;9.886;2023-04-22T02:07:26;92370.34;;;11.25;58.55
59289;BME280;45056;47.602;9.886;2023-04-22T02:09:54;92366.13;;;11.24;58.52
59289;BME280;45056;47.602;9.886;2023-04-22T02:12:22;92369.56;;;11.24;58.54
59289;BME280;45056;47.602;9.886;2023-04-22T02:14:51;92378.19;;;11.23;58.56
59289;BME280;45056;47.602;9.886;2023-04-22T02:17:19;92375.94;;;11.21;58.59
59289;BME280;45056;47.602;9.886;2023-04-22T02:19:47;92381.53;;;11.18;59.01
59289;BME280;45056;47.602;9.886;2023-04-22T02:22:16;92378.22;;;11.14;59.17
59289;BME280;45056;47.602;9.886;2023-04-22T02:24:45;92376.44;;;11.10;58.84
59289;BME280;45056;47.602;9.886;2023-04-22T02:27:13;92376.56;;;11.07;59.00
59289;BME280;45056;47.602;9.886;2023-04-22T02:29:41;92380.22;;;11.04;58.95
59289;BME280;45056;47.602;9.886;2023-04-22T02:32:10;92374.66;;;10.98;59.21
59289;BME280;45056;47.602;9.886;2023-04-22T02:34:38;92382.97;;;10.94;59.29
59289;BME280;45056;47.602;9.886;2023-04-22T02:37:07;92381.91;;;10.92;59.34
59289;BME280;45056;47.602;9.886;2023-04-22T02:39:34;92380.41;;;10.91;59.24
59289;BME280;45056;47.602;9.886;2023-04-22T02:42:03;92376.94;;;10.90;59.46
59289;BME280;45056;47.602;9.886;2023-04-22T02:44:31;92375.88;;;10.88;59.26
59289;BME280;45056;47.602;9.886;2023-04-22T02:46:59;92376.78;;;10.85;59.37
59289;BME280;45056;47.602;9.886;2023-04-22T02:49:28;92379.22;;;10.82;59.31
59289;BME280;45056;47.602;9.886;2023-04-22T02:51:56;92371.66;;;10.77;59.59
59289;BME280;45056;47.602;9.886;2023-04-22T02:54:24;92378.03;;;10.74;59.59
59289;BME280;45056;47.602;9.886;2023-04-22T02:56:52;92374.25;;;10.72;59.60
59289;BME280;45056;47.602;9.886;2023-04-22T02:59:20;92358.81;;;10.68;59.57
59289;BME280;45056;47.602;9.886;2023-04-22T03:01:48;92368.97;;;10.68;59.39
59289;BME280;45056;47.602;9.886;2023-04-22T03:04:16;92363.97;;;10.66;59.22
59289;BME280;45056;47.602;9.886;2023-04-22T03:06:48;92361.72;;;10.65;59.03
59289;BME280;45056;47.602;9.886;2023-04-22T03:09:16;92365.34;;;10.62;59.15
59289;BME280;45056;47.602;9.886;2023-04-22T03:11:44;92368.22;;;10.58;59.27
59289;BME280;45056;47.602;9.886;2023-04-22T03:14:12;92364.44;;;10.56;59.29
59289;BME280;45056;47.602;9.886;2023-04-22T03:16:40;92370.34;;;10.54;59.18
59289;BME280;45056;47.602;9.886;2023-04-22T03:19:08;92368.84;;;10.53;59.15
59289;BME280;45056;47.602;9.886;2023-04-22T03:21:36;92374.28;;;10.53;58.77
59289;BME280;45056;47.602;9.886;2023-04-22T03:24:05;92381.38;;;10.50;58.49
59289;BME280;45056;47.602;9.886;2023-04-22T03:26:33;92377.59;;;10.48;58.22
59289;BME280;45056;47.602;9.886;2023-04-22T03:29:01;92380.34;;;10.48;57.68
59289;BME280;45056;47.602;9.886;2023-04-22T03:31:29;92376.09;;;10.47;57.12
59289;BME280;45056;47.602;9.886;2023-04-22T03:33:57;92380.78;;;10.46;57.40
59289;BME280;45056;47.602;9.886;2023-04-22T03:36:26;92377.75;;;10.44;57.61
59289;BME280;45056;47.602;9.886;2023-04-22T03:38:54;92370.81;;;10.43;57.63
59289;BME280;45056;47.602;9.886;2023-04-22T03:41:23;92369.00;;;10.40;57.49
59289;BME280;45056;47.602;9.886;2023-04-22T03:43:51;92372.59;;;10.37;57.43
59289;BME280;45056;47.602;9.886;2023-04-22T03:46:19;92374.25;;;10.34;57.28
59289;BME280;45056;47.602;9.886;2023-04-22T03:48:47;92375.63;;;10.30;57.26
59289;BME280;45056;47.602;9.886;2023-04-22T03:51:15;92373.78;;;10.27;57.55
59289;BME280;45056;47.602;9.886;2023-04-22T03:53:43;92375.47;;;10.24;57.54
59289;BME280;45056;47.602;9.886;2023-04-22T03:56:11;92379.84;;;10.21;57.49
59289;BME280;45056;47.602;9.886;2023-04-22T03:58:40;92377.88;;;10.22;57.30
59289;BME280;45056;47.602;9.886;2023-04-22T04:01:08;92372.44;;;10.22;57.26
59289;BME280;45056;47.602;9.886;2023-04-22T04:03:37;92379.84;;;10.21;57.28
59289;BME280;45056;47.602;9.886;2023-04-22T04:06:05;92380.59;;;10.22;56.82
59289;BME280;45056;47.602;9.886;2023-04-22T04:08:33;92380.13;;;10.23;56.32
59289;BME280;45056;47.602;9.886;2023-04-22T04:11:01;92373.97;;;10.23;56.46
59289;BME280;45056;47.602;9.886;2023-04-22T04:13:29;92374.09;;;10.19;56.68
59289;BME280;45056;47.602;9.886;2023-04-22T04:15:59;92379.22;;;10.17;57.14
59289;BME280;45056;47.602;9.886;2023-04-22T04:18:27;92389.81;;;10.15;57.46
59289;BME280;45056;47.602;9.886;2023-04-22T04:20:56;92384.06;;;10.13;57.41
59289;BME280;45056;47.602;9.886;2023-04-22T04:23:23;92380.28;;;10.10;57.63
59289;BME280;45056;47.602;9.886;2023-04-22T04:25:52;92393.13;;;10.10;57.69
59289;BME280;45056;47.602;9.886;2023-04-22T04:28:21;92386.91;;;10.09;57.84
59289;BME280;45056;47.602;9.886;2023-04-22T04:30:49;92392.34;;;10.09;57.95
59289;BME280;45056;47.602;9.886;2023-04-22T04:33:20;92386.63;;;10.07;57.77
59289;BME280;45056;47.602;9.886;2023-04-22T04:35:48;92386.91;;;10.00;57.79
59289;BME280;45056;47.602;9.886;2023-04-22T04:38:17;92384.03;;;9.94;57.94
59289;BME280;45056;47.602;9.886;2023-04-22T04:40:45;92381.63;;;9.87;57.74
59289;BME280;45056;47.602;9.886;2023-04-22T04:43:15;92376.47;;;9.80;57.80
59289;BME280;45056;47.602;9.886;2023-04-22T04:45:44;92382.03;;;9.76;57.69
59289;BME280;45056;47.602;9.886;2023-04-22T04:48:12;92386.72;;;9.76;57.89
59289;BME280;45056;47.602;9.886;2023-04-22T04:50:42;92387.78;;;9.78;58.00
59289;BME280;45056;47.602;9.886;2023-04-22T04:53:11;92382.66;;;9.80;58.15
59289;BME280;45056;47.602;9.886;2023-04-22T04:55:39;92387.34;;;9.80;58.13
59289;BME280;45056;47.602;9.886;2023-04-22T04:58:07;92390.38;;;9.82;58.15
59289;BME280;45056;47.602;9.886;2023-04-22T05:00:35;92387.22;;;9.84;58.10
59289;BME280;45056;47.602;9.886;2023-04-22T05:03:03;92390.97;;;9.86;58.15
59289;BME280;45056;47.602;9.886;2023-04-22T05:05:31;92390.06;;;9.89;58.21
59289;BME280;45056;47.602;9.886;2023-04-22T05:08:00;92392.19;;;9.94;58.14
59289;BME280;45056;47.602;9.886;2023-04-22T05:10:28;92397.34;;;10.02;58.24
59289;BME280;45056;47.602;9.886;2023-04-22T05:12:57;92400.38;;;10.04;58.38
59289;BME280;45056;47.602;9.886;2023-04-22T05:15:25;92395.53;;;10.08;58.36
59289;BME280;45056;47.602;9.886;2023-04-22T05:17:53;92392.53;;;10.15;58.22
59289;BME280;45056;47.602;9.886;2023-04-22T05:20:21;92398.88;;;10.21;58.05
59289;BME280;45056;47.602;9.886;2023-04-22T05:22:49;92396.31;;;10.27;57.98
59289;BME280;45056;47.602;9.886;2023-04-22T05:25:18;92398.41;;;10.32;57.76
59289;BME280;45056;47.602;9.886;2023-04-22T05:27:46;92404.75;;;10.38;57.76
59289;BME280;45056;47.602;9.886;2023-04-22T05:30:14;92408.88;;;10.43;57.85
59289;BME280;45056;47.602;9.886;2023-04-22T05:32:42;92409.03;;;10.49;57.78
59289;BME280;45056;47.602;9.886;2023-04-22T05:35:10;92407.22;;;10.55;57.63
59289;BME280;45056;47.602;9.886;2023-04-22T05:37:38;92413.84;;;10.63;57.70
59289;BME280;45056;47.602;9.886;2023-04-22T05:40:07;92401.00;;;10.73;57.60
59289;BME280;45056;47.602;9.886;2023-04-22T05:42:37;92408.41;;;10.82;57.53
59289;BME280;45056;47.602;9.886;2023-04-22T05:45:06;92402.16;;;10.91;57.09
59289;BME280;45056;47.602;9.886;2023-04-22T05:47:35;92406.41;;;11.01;56.74
59289;BME280;45056;47.602;9.886;2023-04-22T05:50:03;92410.91;;;11.14;56.40
59289;BME280;45056;47.602;9.886;2023-04-22T05:52:32;92406.03;;;11.27;56.93
59289;BME280;45056;47.602;9.886;2023-04-22T05:55:00;92412.50;;;11.39;57.15
59289;BME280;45056;47.602;9.886;2023-04-22T05:57:28;92417.28;;;11.53;57.09
59289;BME280;45056;47.602;9.886;2023-04-22T05:59:59;92422.81;;;11.68;56.71
59289;BME280;45056;47.602;9.886;2023-04-22T06:02:27;92414.25;;;11.85;56.30
59289;BME280;45056;47.602;9.886;2023-04-22T06:04:56;92420.56;;;12.01;55.39
59289;BME280;45056;47.602;9.886;2023-04-22T06:07:24;92414.41;;;12.15;54.50
59289;BME280;45056;47.602;9.886;2023-04-22T06:09:52;92417.97;;;12.31;53.85
59289;BME280;45056;47.602;9.886;2023-04-22T06:12:20;92419.97;;;12.45;53.10
59289;BME280;45056;47.602;9.886;2023-04-22T06:14:48;92419.91;;;12.54;52.74
59289;BME280;45056;47.602;9.886;2023-04-22T06:17:17;92430.47;;;12.62;51.73
59289;BME280;45056;47.602;9.886;2023-04-22T06:19:46;92432.38;;;12.70;51.15
59289;BME280;45056;47.602;9.886;2023-04-22T06:22:13;92427.88;;;12.82;51.36
59289;BME280;45056;47.602;9.886;2023-04-22T06:24:41;92434.59;;;12.96;51.15
59289;BME280;45056;47.602;9.886;2023-04-22T06:27:09;92427.63;;;13.10;50.33
59289;BME280;45056;47.602;9.886;2023-04-22T06:29:37;92433.72;;;13.20;49.16
59289;BME280;45056;47.602;9.886;2023-04-22T06:32:05;92430.66;;;13.27;46.52
59289;BME280;45056;47.602;9.886;2023-04-22T06:34:35;92434.69;;;13.32;45.87
59289;BME280;45056;47.602;9.886;2023-04-22T06:37:04;92434.00;;;13.37;45.30
59289;BME280;45056;47.602;9.886;2023-04-22T06:39:32;92441.09;;;13.44;44.83
59289;BME280;45056;47.602;9.886;2023-04-22T06:42:00;92450.44;;;13.52;44.07
59289;BME280;45056;47.602;9.886;2023-04-22T06:44:28;92445.91;;;13.64;43.66
59289;BME280;45056;47.602;9.886;2023-04-22T06:46:57;92455.78;;;13.77;43.94
59289;BME280;45056;47.602;9.886;2023-04-22T06:49:25;92447.91;;;13.99;44.01
59289;BME280;45056;47.602;9.886;2023-04-22T06:51:54;92441.53;;;14.44;43.30
59289;BME280;45056;47.602;9.886;2023-04-22T06:54:22;92443.75;;;15.08;41.79
59289;BME280;45056;47.602;9.886;2023-04-22T06:56:51;92441.19;;;15.83;40.32
59289;BME280;45056;47.602;9.886;2023-04-22T06:59:18;92442.06;;;16.44;39.11
59289;BME280;45056;47.602;9.886;2023-04-22T07:01:46;92432.78;;;16.97;37.97
59289;BME280;45056;47.602;9.886;2023-04-22T07:04:14;92428.88;;;17.38;37.38
59289;BME280;45056;47.602;9.886;2023-04-22T07:06:42;92436.66;;;17.85;37.35
59289;BME280;45056;47.602;9.886;2023-04-22T07:09:12;92438.34;;;18.34;36.31
59289;BME280;45056;47.602;9.886;2023-04-22T07:11:40;92437.53;;;18.62;35.22
59289;BME280;45056;47.602;9.886;2023-04-22T07:14:08;92433.22;;;18.72;34.95
59289;BME280;45056;47.602;9.886;2023-04-22T07:16:36;92428.97;;;18.71;35.01
59289;BME280;45056;47.602;9.886;2023-04-22T07:19:04;92435.78;;;18.58;35.63
59289;BME280;45056;47.602;9.886;2023-04-22T07:21:32;92431.59;;;18.40;36.04
59289;BME280;45056;47.602;9.886;2023-04-22T07:24:00;92434.13;;;18.21;36.27
59289;BME280;45056;47.602;9.886;2023-04-22T07:26:30;92429.38;;;17.99;37.13
59289;BME280;45056;47.602;9.886;2023-04-22T07:28:59;92424.38;;;17.80;36.65
59289;BME280;45056;47.602;9.886;2023-04-22T07:31:28;92422.41;;;17.64;37.15
59289;BME280;45056;47.602;9.886;2023-04-22T07:33:56;92425.13;;;17.52;37.55
59289;BME280;45056;47.602;9.886;2023-04-22T07:36:24;92425.91;;;17.53;38.11
59289;BME280;45056;47.602;9.886;2023-04-22T07:38:52;92419.13;;;17.65;38.39
59289;BME280;45056;47.602;9.886;2023-04-22T07:41:20;92413.38;;;17.86;37.96
59289;BME280;45056;47.602;9.886;2023-04-22T07:43:49;92411.38;;;18.09;37.71
59289;BME280;45056;47.602;9.886;2023-04-22T07:46:17;92419.31;;;18.36;36.69
59289;BME280;45056;47.602;9.886;2023-04-22T07:48:45;92413.22;;;18.66;36.75
59289;BME280;45056;47.602;9.886;2023-04-22T07:51:13;92418.88;;;18.91;36.15
59289;BME280;45056;47.602;9.886;2023-04-22T07:53:41;92417.31;;;19.07;36.66
59289;BME280;45056;47.602;9.886;2023-04-22T07:56:09;92419.06;;;19.10;36.17
59289;BME280;45056;47.602;9.886;2023-04-22T07:58:37;92423.59;;;18.96;36.20
59289;BME280;45056;47.602;9.886;2023-04-22T08:01:06;92425.22;;;18.74;36.18
59289;BME280;45056;47.602;9.886;2023-04-22T08:03:34;92425.53;;;18.48;37.02
59289;BME280;45056;47.602;9.886;2023-04-22T08:06:03;92423.38;;;18.29;37.52
59289;BME280;45056;47.602;9.886;2023-04-22T08:08:31;92424.63;;;18.22;38.76
59289;BME280;45056;47.602;9.886;2023-04-22T08:10:59;92432.13;;;18.27;38.46
59289;BME280;45056;47.602;9.886;2023-04-22T08:13:27;92433.06;;;18.47;38.01
59289;BME280;45056;47.602;9.886;2023-04-22T08:15:55;92436.91;;;18.92;37.68
59289;BME280;45056;47.602;9.886;2023-04-22T08:18:25;92433.91;;;19.43;37.55
59289;BME280;45056;47.602;9.886;2023-04-22T08:20:53;92432.03;;;19.93;37.10
59289;BME280;45056;47.602;9.886;2023-04-22T08:23:21;92428.97;;;20.52;36.64
59289;BME280;45056;47.602;9.886;2023-04-22T08:25:49;92428.72;;;21.00;35.54
59289;BME280;45056;47.602;9.886;2023-04-22T08:28:18;92424.25;;;21.48;34.24
59289;BME280;45056;47.602;9.886;2023-04-22T08:30:46;92427.13;;;21.95;32.73
59289;BME280;45056;47.602;9.886;2023-04-22T08:33:15;92427.81;;;22.28;31.17
59289;BME280;45056;47.602;9.886;2023-04-22T08:35:44;92421.25;;;22.44;30.64
59289;BME280;45056;47.602;9.886;2023-04-22T08:38:12;92425.28;;;22.43;30.04
59289;BME280;45056;47.602;9.886;2023-04-22T08:40:41;92425.94;;;22.36;30.53
59289;BME280;45056;47.602;9.886;2023-04-22T08:43:10;92430.16;;;22.24;30.75
59289;BME280;45056;47.602;9.886;2023-04-22T08:45:39;92420.22;;;22.15;30.86
59289;BME280;45056;47.602;9.886;2023-04-22T08:48:08;92429.59;;;22.12;29.74
59289;BME280;45056;47.602;9.886;2023-04-22T08:50:38;92420.84;;;21.94;29.02
59289;BME280;45056;47.602;9.886;2023-04-22T08:53:07;92420.47;;;21.71;29.05
59289;BME280;45056;47.602;9.886;2023-04-22T08:55:36;92421.72;;;21.51;29.40
59289;BME280;45056;47.602;9.886;2023-04-22T08:58:06;92424.94;;;21.36;30.26
59289;BME280;45056;47.602;9.886;2023-04-22T09:00:34;92419.94;;;21.53;30.48
59289;BME280;45056;47.602;9.886;2023-04-22T09:03:05;92424.34;;;21.95;30.22
59289;BME280;45056;47.602;9.886;2023-04-22T09:05:36;92416.66;;;22.33;30.48
59289;BME280;45056;47.602;9.886;2023-04-22T09:08:09;92422.75;;;22.59;29.84
59289;BME280;45056;47.602;9.886;2023-04-22T09:10:38;92421.16;;;22.90;30.33
59289;BME280;45056;47.602;9.886;2023-04-22T09:13:06;92421.91;;;23.39;30.42
59289;BME280;45056;47.602;9.886;2023-04-22T09:15:34;92412.00;;;23.65;29.57
59289;BME280;45056;47.602;9.886;2023-04-22T09:18:02;92413.09;;;23.62;29.10
59289;BME280;45056;47.602;9.886;2023-04-22T09:20:31;92407.06;;;23.50;28.75
59289;BME280;45056;47.602;9.886;2023-04-22T09:23:02;92409.47;;;23.19;28.24
59289;BME280;45056;47.602;9.886;2023-04-22T09:25:33;92408.81;;;22.78;29.15
59289;BME280;45056;47.602;9.886;2023-04-22T09:28:01;92414.72;;;22.42;30.11
59289;BME280;45056;47.602;9.886;2023-04-22T09:30:31;92406.59;;;22.03;30.79
59289;BME280;45056;47.602;9.886;2023-04-22T09:33:01;92403.31;;;21.72;32.26
59289;BME280;45056;47.602;9.886;2023-04-22T09:35:33;92401.69;;;21.44;32.80
59289;BME280;45056;47.602;9.886;2023-04-22T09:38:04;92398.78;;;21.17;32.65
59289;BME280;45056;47.602;9.886;2023-04-22T09:40:37;92405.16;;;20.93;32.51
59289;BME280;45056;47.602;9.886;2023-04-22T09:43:08;92406.81;;;20.83;33.73
59289;BME280;45056;47.602;9.886;2023-04-22T09:45:38;92405.94;;;20.69;33.37
59289;BME280;45056;47.602;9.886;2023-04-22T09:48:09;92411.81;;;20.59;34.06
59289;BME280;45056;47.602;9.886;2023-04-22T09:50:40;92402.56;;;20.57;35.17
59289;BME280;45056;47.602;9.886;2023-04-22T09:53:12;92398.25;;;20.61;34.51
59289;BME280;45056;47.602;9.886;2023-04-22T09:55:45;92402.19;;;20.66;35.11
59289;BME280;45056;47.602;9.886;2023-04-22T09:58:16;92399.38;;;20.72;35.95
59289;BME280;45056;47.602;9.886;2023-04-22T10:00:48;92399.03;;;20.81;36.20
59289;BME280;45056;47.602;9.886;2023-04-22T10:03:17;92390.38;;;20.90;36.37
59289;BME280;45056;47.602;9.886;2023-04-22T10:05:46;92384.03;;;20.96;35.45
59289;BME280;45056;47.602;9.886;2023-04-22T10:08:15;92389.56;;;20.96;35.64
59289;BME280;45056;47.602;9.886;2023-04-22T10:10:45;92390.00;;;21.00;36.18
59289;BME280;45056;47.602;9.886;2023-04-22T10:13:13;92394.19;;;21.07;37.00
59289;BME280;45056;47.602;9.886;2023-04-22T10:15:48;92394.75;;;21.18;37.18
59289;BME280;45056;47.602;9.886;2023-04-22T10:18:21;92395.66;;;21.27;36.88
59289;BME280;45056;47.602;9.886;2023-04-22T10:20:53;92392.69;;;21.25;36.59
59289;BME280;45056;47.602;9.886;2023-04-22T10:23:24;92385.44;;;21.22;36.36
59289;BME280;45056;47.602;9.886;2023-04-22T10:25:55;92394.03;;;21.18;36.36
59289;BME280;45056;47.602;9.886;2023-04-22T10:30:52;92396.19;;;21.06;36.59
59289;BME280;45056;47.602;9.886;2023-04-22T10:33:37;92395.44;;;21.05;35.86
59289;BME280;45056;47.602;9.886;2023-04-22T10:36:08;92392.16;;;21.07;36.32
59289;BME280;45056;47.602;9.886;2023-04-22T10:38:39;92395.59;;;21.13;36.83
59289;BME280;45056;47.602;9.886;2023-04-22T10:41:14;92390.72;;;21.19;36.60
59289;BME280;45056;47.602;9.886;2023-04-22T10:43:45;92389.38;;;21.26;36.49
59289;BME280;45056;47.602;9.886;2023-04-22T10:49:30;92384.50;;;21.32;35.88
59289;BME280;45056;47.602;9.886;2023-04-22T10:52:01;92388.97;;;21.36;36.01
59289;BME280;45056;47.602;9.886;2023-04-22T10:54:57;92381.00;;;21.32;35.90
59289;BME280;45056;47.602;9.886;2023-04-22T10:57:32;92385.56;;;21.29;35.85
59289;BME280;45056;47.602;9.886;2023-04-22T11:00:22;92389.97;;;21.38;36.59
59289;BME280;45056;47.602;9.886;2023-04-22T11:03:12;92382.97;;;21.51;36.68
59289;BME280;45056;47.602;9.886;2023-04-22T11:05:44;92386.09;;;21.60;37.18
59289;BME280;45056;47.602;9.886;2023-04-22T11:08:17;92387.03;;;21.69;36.07
59289;BME280;45056;47.602;9.886;2023-04-22T11:10:48;92375.41;;;21.70;36.43
59289;BME280;45056;47.602;9.886;2023-04-22T11:13:20;92376.59;;;21.75;36.69
59289;BME280;45056;47.602;9.886;2023-04-22T11:15:52;92380.75;;;21.82;36.84
59289;BME280;45056;47.602;9.886;2023-04-22T11:18:23;92384.19;;;21.88;36.92
59289;BME280;45056;47.602;9.886;2023-04-22T11:20:53;92388.69;;;21.91;37.28
59289;BME280;45056;47.602;9.886;2023-04-22T11:23:24;92388.69;;;21.91;36.95
59289;BME280;45056;47.602;9.886;2023-04-22T11:25:54;92379.81;;;21.93;36.69
59289;BME280;45056;47.602;9.886;2023-04-22T11:28:24;92382.06;;;21.94;36.94
59289;BME280;45056;47.602;9.886;2023-04-22T11:31:00;92383.03;;;21.97;36.29
59289;BME280;45056;47.602;9.886;2023-04-22T11:33:31;92384.75;;;22.00;36.02
59289;BME280;45056;47.602;9.886;2023-04-22T11:36:01;92386.69;;;22.05;36.05
59289;BME280;45056;47.602;9.886;2023-04-22T11:38:29;92382.00;;;22.13;36.35
59289;BME280;45056;47.602;9.886;2023-04-22T11:40:58;92378.69;;;22.15;36.11
59289;BME280;45056;47.602;9.886;2023-04-22T11:43:27;92384.13;;;22.20;36.37
59289;BME280;45056;47.602;9.886;2023-04-22T11:45:56;92375.19;;;22.28;35.39
59289;BME280;45056;47.602;9.886;2023-04-22T11:48:24;92380.84;;;22.36;35.01
59289;BME280;45056;47.602;9.886;2023-04-22T11:51:07;92381.69;;;22.44;35.11
59289;BME280;45056;47.602;9.886;2023-04-22T11:53:37;92384.38;;;22.50;35.52
59289;BME280;45056;47.602;9.886;2023-04-22T11:56:06;92386.28;;;22.55;35.84
59289;BME280;45056;47.602;9.886;2023-04-22T11:58:38;92385.97;;;22.58;35.31
59289;BME280;45056;47.602;9.886;2023-04-22T12:01:12;92380.44;;;22.58;35.38
59289;BME280;45056;47.602;9.886;2023-04-22T12:03:40;92380.22;;;22.56;35.71
59289;BME280;45056;47.602;9.886;2023-04-22T12:06:08;92380.22;;;22.56;35.72
59289;BME280;45056;47.602;9.886;2023-04-22T12:08:38;92373.72;;;22.54;35.80
59289;BME280;45056;47.602;9.886;2023-04-22T12:11:09;92375.75;;;22.53;35.80
59289;BME280;45056;47.602;9.886;2023-04-22T12:13:42;92373.72;;;22.54;35.58
59289;BME280;45056;47.602;9.886;2023-04-22T12:16:16;92375.22;;;22.55;35.48
59289;BME280;45056;47.602;9.886;2023-04-22T12:18:49;92377.97;;;22.55;35.22
59289;BME280;45056;47.602;9.886;2023-04-22T12:21:20;92372.97;;;22.53;35.34
59289;BME280;45056;47.602;9.886;2023-04-22T12:23:51;92371.69;;;22.54;35.07
59289;BME280;45056;47.602;9.886;2023-04-22T12:26:22;92370.44;;;22.55;34.69
59289;BME280;45056;47.602;9.886;2023-04-22T12:28:54;92375.09;;;22.60;34.23
59289;BME280;45056;47.602;9.886;2023-04-22T12:31:25;92376.16;;;22.71;34.88
59289;BME280;45056;47.602;9.886;2023-04-22T12:33:53;92366.66;;;22.80;34.58
59289;BME280;45056;47.602;9.886;2023-04-22T12:36:22;92364.00;;;22.87;34.05
59289;BME280;45056;47.602;9.886;2023-04-22T12:38:50;92363.63;;;22.91;34.39
59289;BME280;45056;47.602;9.886;2023-04-22T12:41:18;92362.44;;;23.00;35.43
59289;BME280;45056;47.602;9.886;2023-04-22T12:43:47;92353.34;;;23.13;34.60
59289;BME280;45056;47.602;9.886;2023-04-22T12:46:16;92360.47;;;23.22;34.72
59289;BME280;45056;47.602;9.886;2023-04-22T12:48:44;92352.59;;;23.26;33.81
59289;BME280;45056;47.602;9.886;2023-04-22T12:51:12;92352.59;;;23.26;32.67
59289;BME280;45056;47.602;9.886;2023-04-22T12:53:40;92350.03;;;23.28;32.29
59289;BME280;45056;47.602;9.886;2023-04-22T12:56:08;92359.50;;;23.32;32.27
59289;BME280;45056;47.602;9.886;2023-04-22T12:58:37;92364.91;;;23.38;31.48
59289;BME280;45056;47.602;9.886;2023-04-22T13:01:05;92366.84;;;23.43;31.19
59289;BME280;45056;47.602;9.886;2023-04-22T13:03:34;92365.19;;;23.48;32.63
59289;BME280;45056;47.602;9.886;2023-04-22T13:06:02;92361.16;;;23.49;32.39
59289;BME280;45056;47.602;9.886;2023-04-22T13:08:30;92361.91;;;23.49;33.13
59289;BME280;45056;47.602;9.886;2023-04-22T13:10:58;92370.63;;;23.54;33.44
59289;BME280;45056;47.602;9.886;2023-04-22T13:13:26;92366.78;;;23.57;33.17
59289;BME280;45056;47.602;9.886;2023-04-22T13:15:54;92362.09;;;23.52;32.06